Time;durP1;ratioP1;P1;durP2;ratioP2;P2;SDS_P1;SDS_P2;PMS_P1;PMS_P2;Temp;Humidity;BMP_temperature;BMP_pressure;BME280_temperature;BME280_humidity;BME280_pressure;Samples;Min_cycle;Max_cycle;Signal;HPM_P1;HPM_P2
2022/09/30 00:00:24;;;;;;;;;37.75;29.50;;;;;10.70;69.29;100733.69;2373480;28;45327;-86
2022/09/30 00:01:36;;;;;;;;;28.25;26.25;;;;;10.70;69.25;100736.31;2377112;28;45476;-86
2022/09/30 00:02:46;;;;;;;;;30.00;26.50;;;;;10.68;69.64;100735.50;2384466;28;45315;-85
2022/09/30 00:03:56;;;;;;;;;30.25;24.75;;;;;10.68;69.43;100735.50;2382827;28;46206;-86
2022/09/30 00:05:07;;;;;;;;;32.00;26.00;;;;;10.67;69.62;100745.16;2383349;28;45365;-86
2022/09/30 00:06:19;;;;;;;;;36.75;31.25;;;;;10.67;69.61;100736.41;2374513;28;47827;-86
2022/09/30 00:07:29;;;;;;;;;28.00;27.00;;;;;10.69;69.55;100739.88;2378075;28;45345;-86
2022/09/30 00:08:40;;;;;;;;;31.25;28.00;;;;;10.67;69.54;100745.16;2384531;28;45484;-86
2022/09/30 00:09:50;;;;;;;;;31.00;30.00;;;;;10.68;69.73;100753.91;2383780;28;45362;-86
2022/09/30 00:11:04;;;;;;;;;25.50;25.50;;;;;10.66;69.18;100747.84;2374328;28;47876;-86
2022/09/30 00:12:15;;;;;;;;;29.75;27.25;;;;;10.67;69.58;100752.19;2376640;28;45465;-86
2022/09/30 00:13:26;;;;;;;;;30.25;25.25;;;;;10.65;69.61;100751.38;2384249;28;45448;-86
2022/09/30 00:14:36;;;;;;;;;25.25;24.75;;;;;10.63;69.67;100756.69;2372628;28;45297;-85
2022/09/30 00:15:47;;;;;;;;;30.25;27.00;;;;;10.61;69.76;100750.63;2377055;28;45418;-86
2022/09/30 00:16:58;;;;;;;;;29.50;27.75;;;;;10.61;69.54;100757.66;2384446;28;45236;-86
2022/09/30 00:18:08;;;;;;;;;34.25;26.25;;;;;10.58;69.62;100748.97;2373656;28;47669;-86
2022/09/30 00:19:19;;;;;;;;;28.00;25.00;;;;;10.60;69.85;100748.03;2367666;28;44696;-86
2022/09/30 00:20:29;;;;;;;;;34.25;30.25;;;;;10.60;69.91;100746.28;2377078;28;46047;-86
2022/09/30 00:21:40;;;;;;;;;25.25;25.25;;;;;10.60;70.10;100750.66;2374058;28;45569;-85
2022/09/30 00:22:51;;;;;;;;;32.50;30.25;;;;;10.61;70.07;100750.63;2376994;28;45629;-86
2022/09/30 00:24:03;;;;;;;;;30.25;25.25;;;;;10.63;69.88;100753.19;2372570;28;44736;-85
2022/09/30 00:25:15;;;;;;;;;27.50;26.75;;;;;10.61;70.03;100739.25;2374782;28;47151;-86
2022/09/30 00:26:25;;;;;;;;;29.75;25.75;;;;;10.63;70.09;100740.06;2385131;28;45443;-86
2022/09/30 00:27:35;;;;;;;;;26.50;25.50;;;;;10.63;69.84;100734.81;2377176;28;47386;-86
2022/09/30 00:28:49;;;;;;;;;26.50;25.25;;;;;10.65;69.81;100732.97;2376853;28;44610;-86
2022/09/30 00:30:00;;;;;;;;;29.50;27.50;;;;;10.66;70.01;100739.97;2382395;28;46639;-85
2022/09/30 00:31:13;;;;;;;;;28.75;27.00;;;;;10.65;69.93;100732.97;2384374;28;45304;-86
2022/09/30 00:32:23;;;;;;;;;29.50;26.25;;;;;10.64;70.00;100741.78;2373987;28;48213;-86
2022/09/30 00:33:34;;;;;;;;;26.75;25.25;;;;;10.65;70.07;100738.22;2376477;28;45409;-86
2022/09/30 00:34:44;;;;;;;;;28.00;27.25;;;;;10.65;70.03;100743.50;2372489;28;47275;-86
2022/09/30 00:35:55;;;;;;;;;28.75;25.25;;;;;10.64;69.86;100741.78;2376858;28;45237;-85
2022/09/30 00:37:07;;;;;;;;;25.75;21.75;;;;;10.63;70.03;100751.44;2383264;28;46473;-86
2022/09/30 00:38:17;;;;;;;;;25.00;21.50;;;;;10.60;70.17;100748.03;2373697;28;45239;-86
2022/09/30 00:39:28;;;;;;;;;27.25;24.75;;;;;10.60;70.36;100750.66;2376977;28;45270;-86
2022/09/30 00:40:39;;;;;;;;;27.50;27.00;;;;;10.60;70.20;100750.66;2384322;28;44606;-86
2022/09/30 00:41:55;;;;;;;;;27.25;25.00;;;;;10.60;70.17;100751.53;2373472;28;47559;-85
2022/09/30 00:43:38;;;;;;;;;27.50;26.50;;;;;10.59;69.93;100744.56;2373552;28;45243;-86
2022/09/30 00:44:54;;;;;;;;;29.75;28.50;;;;;10.57;70.04;100741.09;2379644;28;46510;-86
2022/09/30 00:46:11;;;;;;;;;32.50;26.50;;;;;10.57;70.23;100744.59;2370513;28;45533;-86
2022/09/30 00:47:24;;;;;;;;;28.00;21.75;;;;;10.57;70.15;100741.97;2372605;28;48210;-86
2022/09/30 00:48:37;;;;;;;;;28.25;26.25;;;;;10.56;70.22;100737.66;2377524;28;45409;-86
2022/09/30 00:49:49;;;;;;;;;24.00;23.25;;;;;10.55;70.17;100733.28;2383067;28;46645;-86
2022/09/30 00:51:01;;;;;;;;;28.75;25.00;;;;;10.57;69.87;100739.34;2373790;28;45262;-86
2022/09/30 00:52:12;;;;;;;;;29.00;26.00;;;;;10.55;70.12;100738.53;2374227;28;47292;-86
2022/09/30 00:53:29;;;;;;;;;28.75;24.50;;;;;10.57;69.80;100741.09;2377241;28;45448;-86
2022/09/30 00:54:39;;;;;;;;;28.50;25.75;;;;;10.54;69.77;100744.69;2373677;28;47971;-86
2022/09/30 00:56:08;;;;;;;;;25.75;25.75;;;;;10.53;69.91;100750.00;2376896;28;45529;-86
2022/09/30 00:57:18;;;;;;;;;28.25;25.50;;;;;10.53;69.77;100755.28;2375068;28;45543;-86
2022/09/30 06:41:16;;;;;;;;;35.25;31.00;;;;;9.79;70.88;101035.75;2379897;28;46767;-85
2022/09/30 06:42:26;;;;;;;;;36.00;31.00;;;;;9.79;71.31;101043.63;2386656;28;44692;-85
2022/09/30 06:43:38;;;;;;;;;38.00;30.00;;;;;9.81;71.24;101044.44;2398133;28;45510;-86
2022/09/30 06:44:50;;;;;;;;;36.00;31.75;;;;;9.82;71.35;101038.28;2387537;28;45431;-86
2022/09/30 06:46:00;;;;;;;;;33.25;30.00;;;;;9.83;71.02;101034.75;2383984;28;48242;-86
2022/09/30 06:47:14;;;;;;;;;35.00;30.50;;;;;9.85;71.22;101032.94;2395804;28;45278;-86
2022/09/30 06:48:24;;;;;;;;;31.25;30.25;;;;;9.88;71.42;101046.00;2384467;28;47356;-86
2022/09/30 06:49:35;;;;;;;;;36.50;30.25;;;;;9.89;71.37;101036.38;2385591;28;45322;-85
2022/09/30 06:50:45;;;;;;;;;42.25;36.25;;;;;9.90;71.03;101045.97;2398748;28;46492;-86
2022/09/30 06:51:55;;;;;;;;;37.25;31.75;;;;;9.91;71.18;101050.31;2400036;28;45317;-86
2022/09/30 06:53:07;;;;;;;;;29.50;26.75;;;;;9.93;71.42;101043.25;2395902;28;45442;-86
2022/09/30 06:54:20;;;;;;;;;44.00;36.00;;;;;9.95;71.35;101045.88;2393739;28;45203;-86
2022/09/30 06:55:32;;;;;;;;;38.25;33.75;;;;;9.98;71.64;101048.38;2382807;28;47866;-85
2022/09/30 06:56:42;;;;;;;;;41.50;34.50;;;;;9.99;71.58;101048.38;2379934;28;44884;-86
2022/09/30 06:57:54;;;;;;;;;41.50;32.50;;;;;10.01;71.60;101043.94;2387910;28;46198;-86
2022/09/30 06:59:05;;;;;;;;;35.75;28.75;;;;;10.02;71.52;101043.03;2381129;28;45458;-86
2022/09/30 07:00:16;;;;;;;;;38.00;32.00;;;;;10.04;71.47;101044.75;2388091;28;46534;-86
2022/09/30 07:01:28;;;;;;;;;40.00;33.25;;;;;10.08;71.77;101044.63;2396436;28;46150;-86
2022/09/30 07:02:38;;;;;;;;;45.00;32.25;;;;;10.08;71.53;101042.00;2385073;28;47279;-85
2022/09/30 07:03:55;;;;;;;;;29.00;27.50;;;;;10.11;71.64;101049.81;2389395;28;45897;-86
2022/09/30 07:05:06;;;;;;;;;39.25;33.50;;;;;10.14;71.84;101048.88;2386489;28;48709;-85
2022/09/30 07:06:16;;;;;;;;;43.00;32.25;;;;;10.17;71.62;101040.06;2379259;28;45425;-86
2022/09/30 07:07:26;;;;;;;;;37.25;32.25;;;;;10.20;71.62;101053.09;2389853;28;46197;-85
2022/09/30 07:08:37;;;;;;;;;31.50;29.25;;;;;10.21;71.58;101047.81;2394423;28;44844;-86
2022/09/30 07:09:48;;;;;;;;;41.75;33.75;;;;;10.24;71.96;101054.75;2392056;28;48196;-86
2022/09/30 07:11:03;;;;;;;;;44.75;33.75;;;;;10.25;71.84;101053.81;2383633;28;45396;-85
2022/09/30 07:12:13;;;;;;;;;42.25;36.25;;;;;10.29;71.70;101049.38;2382137;28;46665;-85
2022/09/30 07:13:24;;;;;;;;;33.25;30.25;;;;;10.33;72.01;101051.00;2390313;28;44691;-85
2022/09/30 07:14:35;;;;;;;;;36.75;32.75;;;;;10.33;71.50;101054.50;2387516;28;47228;-89
2022/09/30 07:15:46;;;;;;;;;39.25;33.25;;;;;10.36;71.83;101053.56;2381995;28;44856;-86
2022/09/30 07:16:57;;;;;;;;;38.25;32.75;;;;;10.40;71.75;101046.44;2389567;28;47140;-85
2022/09/30 07:18:07;;;;;;;;;44.25;34.75;;;;;10.40;71.81;101047.31;2395554;28;45490;-86
2022/09/30 07:19:21;;;;;;;;;35.75;32.00;;;;;10.43;71.68;101046.34;2386630;28;47928;-85
2022/09/30 07:20:31;;;;;;;;;38.50;30.25;;;;;10.47;71.64;101050.63;2389914;28;45471;-86
2022/09/30 07:21:42;;;;;;;;;37.00;31.75;;;;;10.49;71.59;101050.59;2388381;28;47037;-86
2022/09/30 07:22:52;;;;;;;;;28.50;27.25;;;;;10.51;71.99;101054.94;2390392;28;45609;-86
2022/09/30 07:24:03;;;;;;;;;32.75;29.00;;;;;10.53;71.81;101045.25;2392110;28;45592;-86
2022/09/30 07:25:14;;;;;;;;;37.00;30.00;;;;;10.54;71.67;101049.56;2392605;28;45474;-86
2022/09/30 07:26:25;;;;;;;;;29.25;28.00;;;;;10.56;71.70;101039.91;2397621;28;46437;-88
2022/09/30 07:27:36;;;;;;;;;31.75;26.25;;;;;10.61;71.70;101044.16;2388512;28;45439;-86
2022/09/30 07:28:47;;;;;;;;;27.75;27.25;;;;;10.64;71.85;101046.72;2393403;28;45355;-87
2022/09/30 07:29:58;;;;;;;;;29.75;27.75;;;;;10.64;71.72;101054.59;2384375;28;45384;-87
2022/09/30 07:31:14;;;;;;;;;29.75;28.75;;;;;10.67;72.00;101049.22;2387127;28;45935;-87
2022/09/30 07:32:25;;;;;;;;;28.25;26.75;;;;;10.70;71.98;101051.78;2386347;28;44891;-87
2022/09/30 07:33:35;;;;;;;;;33.25;28.00;;;;;10.73;71.95;101056.97;2386784;28;45317;-87
2022/09/30 07:34:46;;;;;;;;;28.25;26.75;;;;;10.75;71.90;101055.13;2380603;28;45802;-87
2022/09/30 07:35:58;;;;;;;;;27.50;26.25;;;;;10.76;71.83;101046.38;2390949;28;47121;-87
2022/09/30 07:37:11;;;;;;;;;31.50;29.75;;;;;10.78;71.91;101048.94;2384477;28;45363;-87
2022/09/30 07:38:24;;;;;;;;;34.50;30.50;;;;;10.80;72.03;101047.13;2388289;28;45972;-87
2022/09/30 07:39:35;;;;;;;;;30.00;29.00;;;;;10.85;72.10;101054.88;2381363;28;45370;-87
2022/09/30 07:40:57;;;;;;;;;18.75;15.75;;;;;10.87;71.87;101050.44;2385190;28;45505;-86
2022/09/30 07:42:08;;;;;;;;;33.75;31.00;;;;;10.89;72.28;101065.25;2382724;28;44765;-86
2022/09/30 07:43:20;;;;;;;;;31.75;29.50;;;;;10.93;72.17;101049.38;2384356;28;45431;-87
2022/09/30 07:44:31;;;;;;;;;31.25;29.25;;;;;10.95;71.89;101056.34;2385942;28;45279;-84
2022/09/30 07:45:41;;;;;;;;;29.00;24.75;;;;;10.94;71.89;101046.72;2381386;28;47112;-84
2022/09/30 07:46:52;;;;;;;;;34.00;30.00;;;;;10.98;71.76;101051.00;2379197;28;45411;-85
2022/09/30 07:48:10;;;;;;;;;36.50;29.75;;;;;11.00;71.96;101054.44;2393838;28;46159;-84
2022/09/30 07:49:24;;;;;;;;;35.25;29.50;;;;;11.03;71.61;101048.22;2384930;28;45928;-84
2022/09/30 07:50:34;;;;;;;;;32.75;30.75;;;;;11.07;71.87;101056.88;2379570;28;47325;-84
2022/09/30 07:51:44;;;;;;;;;31.00;30.00;;;;;11.08;71.68;101050.72;2386268;28;45452;-84
2022/09/30 07:52:55;;;;;;;;;28.25;27.75;;;;;11.11;71.56;101050.63;2390501;28;47368;-84
2022/09/30 07:54:11;;;;;;;;;30.50;26.50;;;;;11.13;71.51;101054.06;2383029;28;45303;-83
2022/09/30 07:55:21;;;;;;;;;34.00;30.50;;;;;11.17;71.46;101060.06;2387522;28;46315;-85
2022/09/30 07:56:32;;;;;;;;;34.75;31.75;;;;;11.19;71.52;101053.88;2400410;28;45275;-85
2022/09/30 07:57:42;;;;;;;;;31.25;29.00;;;;;11.20;71.51;101055.59;2397325;28;46283;-85
2022/09/30 07:58:59;;;;;;;;;33.75;31.75;;;;;11.23;71.34;101052.88;2394128;28;45451;-85
2022/09/30 08:00:09;;;;;;;;;36.00;30.75;;;;;11.27;71.35;101056.25;2390657;28;47259;-84
2022/09/30 08:01:20;;;;;;;;;30.75;30.25;;;;;11.31;71.19;101051.78;2386145;28;45183;-85
2022/09/30 08:02:31;;;;;;;;;33.50;30.25;;;;;11.35;70.91;101056.03;2393909;28;47513;-86
2022/09/30 08:03:43;;;;;;;;;36.00;28.75;;;;;11.37;71.14;101054.22;2390271;28;45198;-85
2022/09/30 08:04:53;;;;;;;;;39.25;31.50;;;;;11.39;70.85;101055.03;2388120;28;46400;-84
2022/09/30 08:06:07;;;;;;;;;33.50;29.00;;;;;11.42;71.27;101060.19;2392253;28;45468;-86
2022/09/30 08:07:18;;;;;;;;;35.00;31.25;;;;;11.45;71.44;101052.22;2392406;28;45526;-85
2022/09/30 08:08:28;;;;;;;;;36.75;32.25;;;;;11.51;71.67;101052.94;2392243;28;44786;-85
2022/09/30 08:09:38;;;;;;;;;38.50;31.50;;;;;11.53;71.23;101054.56;2386243;28;46949;-85
2022/09/30 08:10:49;;;;;;;;;29.25;29.25;;;;;11.57;71.09;101057.97;2378498;28;45561;-85
2022/09/30 08:12:02;;;;;;;;;37.75;30.50;;;;;11.58;70.94;101051.81;2391894;28;45288;-84
2022/09/30 08:13:12;;;;;;;;;35.75;30.50;;;;;11.62;71.17;101061.34;2383610;28;44749;-84
2022/09/30 08:14:25;;;;;;;;;37.25;31.75;;;;;11.66;70.95;101055.03;2388206;28;45610;-85
2022/09/30 08:15:36;;;;;;;;;31.25;30.50;;;;;11.67;70.85;101059.41;2392363;28;45519;-85
2022/09/30 08:16:46;;;;;;;;;27.50;27.00;;;;;11.69;70.88;101060.22;2392472;28;45407;-86
2022/09/30 08:17:57;;;;;;;;;36.75;33.25;;;;;11.73;70.42;101062.75;2390154;28;45369;-85
2022/09/30 08:19:14;;;;;;;;;33.50;30.75;;;;;11.76;70.78;101062.63;2384260;28;46914;-85
2022/09/30 08:20:25;;;;;;;;;36.00;32.25;;;;;11.79;70.56;101065.19;2375325;28;45690;-85
2022/09/30 08:21:35;;;;;;;;;33.75;31.25;;;;;11.81;71.01;101061.59;2380622;28;47068;-85
2022/09/30 08:22:46;;;;;;;;;36.00;31.75;;;;;11.85;70.60;101062.38;2391510;28;45233;-86
2022/09/30 08:23:57;;;;;;;;;45.50;33.75;;;;;11.86;70.77;101061.44;2381626;28;47452;-85
2022/09/30 08:25:07;;;;;;;;;35.25;29.75;;;;;11.90;70.60;101064.84;2386395;28;44763;-86
2022/09/30 08:26:19;;;;;;;;;35.50;31.50;;;;;11.92;70.50;101063.88;2384235;28;46851;-86
2022/09/30 08:27:29;;;;;;;;;40.25;32.25;;;;;11.95;70.49;101062.03;2386475;28;44752;-86
2022/09/30 08:28:40;;;;;;;;;38.75;32.50;;;;;11.97;70.59;101060.22;2390065;28;45401;-86
2022/09/30 08:29:50;;;;;;;;;46.00;35.75;;;;;11.99;70.57;101061.03;2388524;28;45291;-86
2022/09/30 08:31:10;;;;;;;;;51.75;42.00;;;;;12.03;70.87;101070.53;2401226;28;45421;-86
2022/09/30 08:32:20;;;;;;;;;42.25;35.25;;;;;12.06;70.75;101067.81;2397591;28;45228;-85
2022/09/30 08:33:31;;;;;;;;;48.00;37.25;;;;;12.08;70.37;101063.34;2403141;28;45387;-86
2022/09/30 08:34:41;;;;;;;;;51.50;42.00;;;;;12.13;70.54;101061.44;2385075;28;45374;-86
2022/09/30 08:35:52;;;;;;;;;60.50;48.00;;;;;12.15;70.45;101064.00;2387287;28;46397;-88
2022/09/30 08:37:03;;;;;;;;;54.50;39.50;;;;;12.18;70.67;101068.31;2402868;28;45280;-86
2022/09/30 08:38:13;;;;;;;;;50.00;40.50;;;;;12.21;70.10;101062.94;2383273;28;48523;-85
2022/09/30 08:39:23;;;;;;;;;39.50;36.00;;;;;12.24;70.33;101060.22;2388674;28;44688;-85
2022/09/30 08:40:52;;;;;;;;;41.00;37.25;;;;;12.27;70.20;101062.75;2400777;28;46976;-84
2022/09/30 08:42:30;;;;;;;;;44.75;36.00;;;;;12.35;69.97;101068.59;2399734;28;45488;-85
2022/09/30 08:44:18;;;;;;;;;47.50;34.50;;;;;12.36;70.43;101059.78;2397683;28;45457;-85
2022/09/30 08:45:39;;;;;;;;;40.50;35.50;;;;;12.43;69.69;101070.09;2382214;28;44771;-86
2022/09/30 08:47:31;;;;;;;;;43.50;36.75;;;;;12.48;69.92;101068.16;2396159;28;46519;-85
2022/09/30 08:48:51;;;;;;;;;45.25;37.00;;;;;12.53;69.78;101068.84;2373614;28;45481;-85
2022/09/30 08:50:36;;;;;;;;;45.75;38.75;;;;;12.59;69.45;101073.06;2395486;28;47828;-85
2022/09/30 08:51:48;;;;;;;;;40.00;34.00;;;;;12.61;69.08;101071.22;2385319;28;45353;-85
2022/09/30 08:53:10;;;;;;;;;45.25;34.75;;;;;12.66;68.96;101063.16;2401531;28;46475;-85
2022/09/30 08:54:25;;;;;;;;;47.75;38.50;;;;;12.68;69.25;101063.94;2397608;28;45436;-85
2022/09/30 08:55:41;;;;;;;;;42.00;35.75;;;;;12.76;69.29;101064.53;2392790;28;46460;-84
2022/09/30 08:56:52;;;;;;;;;40.75;36.75;;;;;12.77;68.87;101060.97;2397050;28;45463;-85
2022/09/30 08:58:05;;;;;;;;;48.50;41.25;;;;;12.85;69.23;101065.09;2401788;28;45526;-85
2022/09/30 08:59:43;;;;;;;;;29.25;24.75;;;;;12.87;69.02;101066.75;2386727;28;45331;-85
2022/09/30 09:01:03;;;;;;;;;50.00;37.75;;;;;12.93;69.41;101068.31;2394650;28;45616;-85
2022/09/30 09:02:30;;;;;;;;;41.25;35.00;;;;;12.98;69.24;101071.63;2385054;28;44903;-88
2022/09/30 09:03:40;;;;;;;;;48.50;40.00;;;;;12.99;68.59;101062.78;2391703;28;45316;-86
2022/09/30 09:04:51;;;;;;;;;41.50;34.75;;;;;13.03;68.17;101068.81;2396590;28;45629;-86
2022/09/30 09:06:27;;;;;;;;;47.00;38.00;;;;;13.06;68.81;101058.16;2386599;28;47973;-85
2022/09/30 09:07:51;;;;;;;;;40.50;32.00;;;;;13.11;68.57;101060.63;2381748;28;45480;-85
2022/09/30 09:09:19;;;;;;;;;43.75;36.50;;;;;13.16;69.07;101061.31;2387041;28;45452;-85
2022/09/30 09:10:44;;;;;;;;;44.75;35.75;;;;;13.18;68.89;101059.47;2399903;28;45186;-87
2022/09/30 09:12:14;;;;;;;;;42.00;36.25;;;;;13.24;68.51;101067.13;2382807;28;48277;-86
2022/09/30 09:13:36;;;;;;;;;37.25;31.50;;;;;13.28;68.54;101067.88;2379210;28;46111;-87
2022/09/30 09:15:11;;;;;;;;;35.75;31.50;;;;;13.31;68.54;101070.38;2379013;28;47962;-84
2022/09/30 09:16:41;;;;;;;;;39.50;36.25;;;;;13.33;68.81;101067.69;2390760;28;45388;-84
2022/09/30 09:18:17;;;;;;;;;36.25;35.25;;;;;13.38;68.30;101068.38;2392834;28;46428;-85
2022/09/30 09:19:56;;;;;;;;;35.75;34.25;;;;;13.43;68.18;101068.19;2398471;28;45333;-86
2022/09/30 09:21:25;;;;;;;;;23.75;22.25;;;;;13.48;68.23;101064.44;2392241;28;47791;-84
2022/09/30 09:22:36;;;;;;;;;41.25;37.75;;;;;13.52;67.82;101069.59;2385248;28;45499;-84
2022/09/30 09:23:50;;;;;;;;;43.25;37.00;;;;;13.55;68.10;101072.97;2386241;28;46864;-85
2022/09/30 09:25:01;;;;;;;;;31.75;28.75;;;;;13.60;68.32;101070.19;2385743;28;45428;-86
2022/09/30 09:26:14;;;;;;;;;25.50;23.75;;;;;13.64;68.06;101070.91;2385354;28;46251;-86
2022/09/30 09:27:49;;;;;;;;;36.50;33.75;;;;;13.69;67.91;101075.09;2382212;28;45499;-86
2022/09/30 09:29:25;;;;;;;;;46.25;34.50;;;;;13.76;68.26;101077.47;2386726;28;45505;-85
2022/09/30 09:30:44;;;;;;;;;43.75;34.75;;;;;13.78;67.69;101079.13;2394382;28;45431;-86
2022/09/30 09:31:57;;;;;;;;;39.00;32.75;;;;;13.80;67.50;101081.72;2387496;28;45712;-84
2022/09/30 09:33:25;;;;;;;;;37.25;32.50;;;;;13.84;67.04;101078.03;2379728;28;45198;-84
2022/09/30 09:34:36;;;;;;;;;25.50;23.50;;;;;13.88;67.22;101084.88;2388067;28;46276;-84
2022/09/30 09:36:11;;;;;;;;;33.25;29.50;;;;;13.92;67.35;101091.78;2392962;28;46223;-84
2022/09/30 09:39:24;;;;;;;;;35.25;29.75;;;;;13.99;67.07;101097.66;2392967;28;45427;-85
2022/09/30 09:41:03;;;;;;;;;37.50;33.00;;;;;14.01;67.15;101100.22;2394500;28;46937;-83
2022/09/30 09:42:51;;;;;;;;;44.75;34.75;;;;;14.07;67.07;101100.00;2394635;28;45921;-90
2022/09/30 09:44:18;;;;;;;;;43.50;33.50;;;;;14.08;67.11;101096.41;2361877;28;46626;-87
2022/09/30 09:45:49;;;;;;;;;35.75;31.50;;;;;14.12;66.76;101103.31;2390554;28;46258;-87
2022/09/30 09:47:04;;;;;;;;;33.50;32.25;;;;;14.16;66.01;101107.53;2392792;28;46401;-86
2022/09/30 09:48:16;;;;;;;;;19.00;17.75;;;;;14.20;65.21;101096.84;2393718;28;45613;-86
2022/09/30 09:49:31;;;;;;;;;15.25;15.25;;;;;14.24;64.23;101101.06;2385697;28;46944;-87
2022/09/30 09:51:02;;;;;;;;;21.00;17.25;;;;;14.27;64.25;101095.63;2389836;28;44815;-89
2022/09/30 09:52:24;;;;;;;;;18.25;17.25;;;;;14.28;64.81;101098.22;2392715;28;46654;-86
2022/09/30 09:53:48;;;;;;;;;17.00;16.00;;;;;14.32;65.13;101098.09;2393852;28;45506;-86
2022/09/30 09:54:59;;;;;;;;;22.50;19.00;;;;;14.33;65.16;101090.06;2396571;28;47248;-86
2022/09/30 09:56:17;;;;;;;;;23.50;18.50;;;;;14.36;65.05;101089.94;2397073;28;45381;-85
2022/09/30 09:57:31;;;;;;;;;20.75;17.75;;;;;14.40;64.94;101091.53;2390181;28;47364;-86
2022/09/30 09:59:05;;;;;;;;;16.25;14.25;;;;;14.43;65.39;101092.31;2388107;28;46216;-86
2022/09/30 10:01:54;;;;;;;;;15.50;14.25;;;;;14.47;64.42;101091.28;2395149;28;45522;-85
2022/09/30 10:03:12;;;;;;;;;16.25;14.50;;;;;14.50;63.57;101091.97;2385576;28;48219;-85
2022/09/30 10:04:31;;;;;;;;;14.00;12.50;;;;;14.52;62.35;101089.25;2387075;28;45621;-85
2022/09/30 10:05:41;;;;;;;;;11.00;7.50;;;;;14.54;61.95;101087.44;2378091;28;46409;-86
2022/09/30 10:06:59;;;;;;;;;12.00;12.00;;;;;14.56;62.12;101087.34;2386891;28;46362;-86
2022/09/30 10:08:17;;;;;;;;;11.25;9.50;;;;;14.56;61.55;101088.22;2383321;28;47913;-85
2022/09/30 10:09:32;;;;;;;;;12.00;10.50;;;;;14.58;61.55;101093.44;2377265;28;45437;-86
2022/09/30 10:10:51;;;;;;;;;10.75;10.75;;;;;14.62;62.32;101090.56;2383674;28;45557;-86
2022/09/30 10:12:05;;;;;;;;;16.00;12.00;;;;;14.66;61.89;101101.03;2384710;28;46930;-86
2022/09/30 10:13:24;;;;;;;;;13.50;11.50;;;;;14.67;61.52;101086.88;2388168;28;47207;-86
2022/09/30 10:14:45;;;;;;;;;17.50;12.75;;;;;14.71;60.95;101093.75;2384748;28;45595;-87
2022/09/30 10:15:58;;;;;;;;;13.00;10.00;;;;;14.76;62.12;101093.53;2391676;28;47652;-87
2022/09/30 10:17:32;;;;;;;;;11.50;9.00;;;;;14.78;62.00;101092.53;2395679;28;45441;-85
2022/09/30 10:18:44;;;;;;;;;10.50;10.50;;;;;14.81;62.42;101097.69;2385346;28;47405;-86
2022/09/30 10:20:15;;;;;;;;;13.00;10.75;;;;;14.83;62.38;101090.56;2385751;28;45520;-87
2022/09/30 10:21:27;;;;;;;;;17.75;16.50;;;;;14.89;62.37;101104.47;2383846;28;48325;-87
2022/09/30 10:22:38;;;;;;;;;16.00;16.00;;;;;14.91;62.61;101094.66;2387415;28;45465;-90
2022/09/30 10:23:48;;;;;;;;;21.00;17.50;;;;;14.96;62.46;101097.97;2381058;28;47564;-87
2022/09/30 10:25:14;;;;;;;;;10.50;10.50;;;;;14.99;62.55;101092.50;2381777;28;45691;-88
2022/09/30 10:26:28;;;;;;;;;17.00;15.50;;;;;15.02;62.31;101092.38;2394132;28;45507;-89
2022/09/30 10:27:53;;;;;;;;;5.50;5.25;;;;;15.04;62.12;101082.56;2384219;28;46129;-88
2022/09/30 10:29:28;;;;;;;;;16.00;15.75;;;;;15.09;62.22;101087.66;2381419;28;47225;-87
2022/09/30 10:30:47;;;;;;;;;11.75;11.75;;;;;15.12;62.15;101087.50;2379744;28;45924;-87
2022/09/30 10:31:59;;;;;;;;;16.50;13.50;;;;;15.16;62.39;101081.13;2390158;28;45654;-88
2022/09/30 10:33:24;;;;;;;;;14.50;13.25;;;;;15.19;62.36;101080.13;2397249;28;45422;-87
2022/09/30 10:34:40;;;;;;;;;17.50;14.75;;;;;15.24;61.90;101082.56;2392807;28;48237;-87
2022/09/30 10:35:53;;;;;;;;;17.50;16.25;;;;;15.27;61.02;101082.41;2388400;28;44842;-89
2022/09/30 10:37:10;;;;;;;;;14.00;12.25;;;;;15.30;61.42;101083.16;2392535;28;48267;-87
2022/09/30 10:38:23;;;;;;;;;17.50;16.75;;;;;15.31;61.95;101076.03;2396042;28;45382;-87
2022/09/30 10:39:36;;;;;;;;;12.50;12.50;;;;;15.35;60.59;101082.06;2391238;28;45872;-87
2022/09/30 10:40:50;;;;;;;;;16.25;15.50;;;;;15.39;60.45;101080.97;2385251;28;45560;-87
2022/09/30 10:42:14;;;;;;;;;12.00;11.75;;;;;15.43;60.43;101079.03;2387502;28;46254;-88
2022/09/30 10:43:42;;;;;;;;;10.25;9.50;;;;;15.44;61.21;101076.31;2396264;28;45272;-87
2022/09/30 10:45:20;;;;;;;;;13.00;11.75;;;;;15.51;60.42;101077.72;2393293;28;45570;-88
2022/09/30 10:46:39;;;;;;;;;16.00;16.00;;;;;15.55;59.52;101082.88;2376288;28;46157;-86
2022/09/30 10:47:53;;;;;;;;;15.00;12.00;;;;;15.58;60.07;101077.44;2387997;28;46584;-85
2022/09/30 10:49:10;;;;;;;;;19.75;17.75;;;;;15.61;60.09;101083.44;2392286;28;45490;-87
2022/09/30 10:50:26;;;;;;;;;11.50;9.25;;;;;15.65;60.54;101086.81;2393094;28;47758;-86
2022/09/30 10:51:38;;;;;;;;;9.75;9.75;;;;;15.68;60.31;101084.00;2383439;28;45568;-87
2022/09/30 10:53:00;;;;;;;;;10.50;10.50;;;;;15.74;60.25;101086.34;2390559;28;46509;-91
2022/09/30 10:54:30;;;;;;;;;9.75;9.75;;;;;15.77;60.38;101089.78;2396006;28;45442;-87
2022/09/30 10:55:43;;;;;;;;;16.25;16.25;;;;;15.81;59.69;101088.69;2397568;28;47831;-87
2022/09/30 10:56:53;;;;;;;;;14.75;14.75;;;;;15.84;60.13;101089.41;2396024;28;45408;-86
2022/09/30 10:58:48;;;;;;;;;18.25;15.75;;;;;15.88;60.20;101086.59;2393938;28;46282;-86
2022/09/30 11:00:13;;;;;;;;;12.75;12.00;;;;;15.90;59.66;101077.63;2343571;28;45363;-86
2022/09/30 11:01:37;;;;;;;;;14.75;12.00;;;;;15.94;60.45;101078.34;2389686;28;45511;-88
2022/09/30 11:02:55;;;;;;;;;18.25;16.50;;;;;15.96;59.84;101077.31;2393017;28;45249;-87
2022/09/30 11:04:26;;;;;;;;;11.00;10.50;;;;;16.02;59.71;101083.25;2394243;28;46870;-86
2022/09/30 11:05:44;;;;;;;;;17.25;16.00;;;;;16.04;56.81;101074.31;2399964;28;45419;-86
2022/09/30 11:07:16;;;;;;;;;17.50;16.25;;;;;16.10;56.85;101073.13;2385408;28;47342;-87
2022/09/30 11:08:49;;;;;;;;;10.00;10.00;;;;;16.15;58.40;101073.75;2391764;28;45489;-88
2022/09/30 11:10:06;;;;;;;;;7.50;7.25;;;;;16.18;58.32;101068.31;2394331;28;45706;-87
2022/09/30 11:11:26;;;;;;;;;11.50;10.50;;;;;16.26;59.03;101077.66;2396746;28;45375;-88
2022/09/30 11:12:46;;;;;;;;;16.75;13.25;;;;;16.30;58.60;101076.53;2394841;28;47086;-88
2022/09/30 11:14:10;;;;;;;;;20.75;14.25;;;;;16.33;57.84;101075.53;2385450;28;44787;-88
2022/09/30 11:15:27;;;;;;;;;10.75;10.75;;;;;16.36;57.96;101078.03;2392577;28;47072;-88
2022/09/30 11:16:55;;;;;;;;;12.00;10.50;;;;;16.38;58.72;101074.34;2396155;28;45581;-88
2022/09/30 11:18:17;;;;;;;;;15.75;15.50;;;;;16.39;58.39;101075.22;2393133;28;45857;-88
2022/09/30 11:19:50;;;;;;;;;10.75;10.50;;;;;16.43;58.10;101084.72;2394080;28;45438;-88
2022/09/30 11:21:08;;;;;;;;;16.00;14.25;;;;;16.47;57.62;101088.09;2393409;28;46531;-88
2022/09/30 11:22:28;;;;;;;;;17.00;15.00;;;;;16.47;56.93;101080.13;2392516;28;44852;-87
2022/09/30 11:24:18;;;;;;;;;7.00;6.25;;;;;16.48;56.57;101081.81;2381224;28;46675;-83
2022/09/30 11:25:37;;;;;;;;;11.25;9.25;;;;;16.52;56.86;101088.69;2392965;28;45499;-88
2022/09/30 11:27:04;;;;;;;;;13.50;12.50;;;;;16.53;57.05;101082.44;2394091;28;48028;-87
2022/09/30 11:29:12;;;;;;;;;9.75;8.00;;;;;16.56;57.45;101089.38;2398470;28;45534;-85
2022/09/30 11:30:32;;;;;;;;;16.00;14.00;;;;;16.60;57.48;101078.53;2373001;28;46476;-86
2022/09/30 11:31:55;;;;;;;;;8.75;8.75;;;;;16.62;57.60;101076.66;2386813;28;45318;-87
2022/09/30 11:33:23;;;;;;;;;11.75;11.50;;;;;16.67;56.72;101075.56;2382713;28;47343;-87
2022/09/30 11:34:50;;;;;;;;;8.75;8.75;;;;;16.70;57.35;101081.53;2388220;28;45447;-87
2022/09/30 11:36:14;;;;;;;;;12.50;8.75;;;;;16.72;57.14;101073.50;2393482;28;46511;-85